createdAt,value
2018-05-19T00:00:04.364Z,21.33
2018-05-19T00:02:30.913Z,14.85
2018-05-19T00:04:58.320Z,16.08
2018-05-19T00:07:24.861Z,15.10
2018-05-19T00:09:51.448Z,18.05
2018-05-19T00:12:18.041Z,16.55
2018-05-19T00:14:44.576Z,17.00
2018-05-19T00:17:11.135Z,20.73
2018-05-19T00:19:37.709Z,18.10
2018-05-19T00:22:04.321Z,21.97
2018-05-19T00:24:30.905Z,20.43
2018-05-19T00:26:57.904Z,24.67
2018-05-19T00:29:24.549Z,17.25
2018-05-19T00:31:51.125Z,15.75
2018-05-19T00:34:17.691Z,12.40
2018-05-19T00:36:44.261Z,13.00
2018-05-19T00:39:10.812Z,12.67
2018-05-19T00:41:37.404Z,18.62
2018-05-19T00:44:04.040Z,16.85
2018-05-19T00:46:30.612Z,16.87
2018-05-19T00:48:57.260Z,15.30
2018-05-19T00:51:23.796Z,16.12
2018-05-19T00:53:50.391Z,17.23
2018-05-19T00:56:16.945Z,16.45
2018-05-19T00:58:43.529Z,13.00
2018-05-19T01:01:10.112Z,21.42
2018-05-19T01:03:36.673Z,20.70
2018-05-19T01:06:03.332Z,26.52
2018-05-19T01:08:30.264Z,21.75
2018-05-19T01:10:56.856Z,16.55
2018-05-19T01:13:23.815Z,14.32
2018-05-19T01:15:50.719Z,17.42
2018-05-19T01:18:17.304Z,17.70
2018-05-19T01:20:43.840Z,12.57
2018-05-19T01:23:10.427Z,17.23
2018-05-19T01:25:37.020Z,13.27
2018-05-19T01:28:03.608Z,14.13
2018-05-19T01:30:30.562Z,15.40
2018-05-19T01:32:57.524Z,11.27
2018-05-19T01:35:24.477Z,13.30
2018-05-19T01:37:51.427Z,15.00
2018-05-19T01:40:18.350Z,12.40
2018-05-19T01:42:44.914Z,12.82
2018-05-19T01:45:11.476Z,18.30
2018-05-19T01:47:38.425Z,24.20
2018-05-19T01:50:05.068Z,23.15
2018-05-19T01:52:32.008Z,16.55
2018-05-19T01:54:58.601Z,15.88
2018-05-19T01:57:25.504Z,14.37
2018-05-19T01:59:52.079Z,15.40
2018-05-19T02:02:18.660Z,14.77
2018-05-19T02:04:45.194Z,14.75
2018-05-19T02:07:12.132Z,17.65
2018-05-19T02:09:39.068Z,18.00
2018-05-19T02:12:05.688Z,15.35
2018-05-19T02:14:32.271Z,16.77
2018-05-19T02:16:58.805Z,14.50
2018-05-19T02:19:25.437Z,13.10
2018-05-19T02:21:52.043Z,14.73
2018-05-19T02:24:18.964Z,17.75
2018-05-19T02:26:45.527Z,13.73
2018-05-19T02:29:12.097Z,16.83
2018-05-19T02:31:39.111Z,16.27
2018-05-19T02:34:05.737Z,15.60
2018-05-19T02:36:32.320Z,16.50
2018-05-19T02:38:58.905Z,14.30
2018-05-19T02:41:25.821Z,13.63
2018-05-19T02:43:52.420Z,11.48
2018-05-19T02:46:18.998Z,14.40
2018-05-19T02:48:45.601Z,13.43
2018-05-19T02:51:12.553Z,15.07
2018-05-19T02:53:39.472Z,16.05
2018-05-19T02:56:06.083Z,18.17
2018-05-19T02:58:32.713Z,12.35
2018-05-19T03:00:59.621Z,14.10
2018-05-19T03:03:26.181Z,15.20
2018-05-19T03:05:52.768Z,13.57
2018-05-19T03:08:19.356Z,11.90
2018-05-19T03:10:45.924Z,12.00
2018-05-19T03:13:12.500Z,12.13
2018-05-19T03:15:39.449Z,12.10
2018-05-19T03:18:05.995Z,16.10
2018-05-19T03:20:32.968Z,13.93
2018-05-19T03:22:59.512Z,14.10
2018-05-19T03:25:26.475Z,14.73
2018-05-19T03:27:53.477Z,14.70
2018-05-19T03:30:20.036Z,13.50
2018-05-19T03:32:46.612Z,11.90
2018-05-19T03:35:13.209Z,11.90
2018-05-19T03:37:39.782Z,18.53
2018-05-19T03:40:06.382Z,13.50
2018-05-19T03:42:32.974Z,15.30
2018-05-19T03:44:59.568Z,14.67
2018-05-19T03:47:26.514Z,14.03
2018-05-19T03:49:53.447Z,15.15
2018-05-19T03:52:20.044Z,15.23
2018-05-19T03:54:46.588Z,14.10
2018-05-19T03:57:25.352Z,14.87
2018-05-19T04:00:04.036Z,15.40
2018-05-19T04:02:35.096Z,13.27
2018-05-19T04:05:01.680Z,16.10
2018-05-19T04:07:28.304Z,14.90
2018-05-19T04:09:54.892Z,16.12
2018-05-19T04:12:21.446Z,13.77
2018-05-19T04:14:48.034Z,15.48
2018-05-19T04:17:14.937Z,12.55
2018-05-19T04:19:41.513Z,15.60
2018-05-19T04:22:08.091Z,15.82
2018-05-19T04:24:34.668Z,12.25
2018-05-19T04:27:01.282Z,13.10
2018-05-19T04:29:27.840Z,14.18
2018-05-19T04:31:54.368Z,13.20
2018-05-19T04:34:21.356Z,15.20
2018-05-19T04:36:47.932Z,12.90
2018-05-19T04:39:14.468Z,13.65
2018-05-19T04:41:41.039Z,15.38
2018-05-19T04:44:07.578Z,14.27
2018-05-19T04:46:34.177Z,12.60
2018-05-19T04:49:00.760Z,13.85
2018-05-19T04:51:27.327Z,13.25
2018-05-19T04:53:53.904Z,13.80
2018-05-19T04:56:20.880Z,11.82
2018-05-19T04:58:47.452Z,15.68
2018-05-19T05:01:14.019Z,13.95
2018-05-19T05:03:40.661Z,17.55
2018-05-19T05:06:07.175Z,14.10
2018-05-19T05:08:33.762Z,17.45
2018-05-19T05:11:00.376Z,14.60
2018-05-19T05:13:26.952Z,17.67
2018-05-19T05:15:53.497Z,13.10
2018-05-19T05:18:20.092Z,14.45
2018-05-19T05:20:46.653Z,15.43
2018-05-19T05:25:46.811Z,15.02
2018-05-19T05:28:13.768Z,12.40
2018-05-19T05:30:40.709Z,15.32
2018-05-19T05:33:07.625Z,19.58
2018-05-19T05:35:34.263Z,16.17
2018-05-19T05:38:00.808Z,15.85
2018-05-19T05:40:27.400Z,15.48
2018-05-19T05:42:54.192Z,14.90
2018-05-19T05:45:20.740Z,15.90
2018-05-19T05:47:47.328Z,16.97
2018-05-19T05:50:13.903Z,17.60
2018-05-19T05:52:40.488Z,16.17
2018-05-19T05:55:07.069Z,18.37
2018-05-19T05:57:33.616Z,17.05
2018-05-19T06:00:00.316Z,14.63
2018-05-19T06:02:26.777Z,18.67
2018-05-19T06:04:53.357Z,21.70
2018-05-19T06:07:19.961Z,16.70
2018-05-19T06:09:46.507Z,15.13
2018-05-19T06:12:13.123Z,18.67
2018-05-19T06:14:39.656Z,16.25
2018-05-19T06:17:06.260Z,14.35
2018-05-19T06:19:39.932Z,16.10
2018-05-19T06:22:06.513Z,14.50
2018-05-19T06:24:33.109Z,14.67
2018-05-19T06:26:59.660Z,16.70
2018-05-19T06:29:26.245Z,16.20
2018-05-19T06:31:53.168Z,17.27
2018-05-19T06:34:19.804Z,14.95
2018-05-19T06:36:46.412Z,14.82
2018-05-19T06:39:12.949Z,20.42
2018-05-19T06:41:39.923Z,18.27
2018-05-19T06:44:06.472Z,14.65
2018-05-19T06:46:33.058Z,15.85
2018-05-19T06:48:59.637Z,18.12
2018-05-19T06:51:26.561Z,18.02
2018-05-19T06:53:53.145Z,16.77
2018-05-19T06:56:20.056Z,15.95
2018-05-19T06:58:46.620Z,16.58
2018-05-19T07:01:13.199Z,15.05
2018-05-19T07:03:40.113Z,17.77
2018-05-19T07:06:06.684Z,14.82
2018-05-19T07:08:33.238Z,14.02
2018-05-19T07:10:59.855Z,17.07
2018-05-19T07:13:26.436Z,14.50
2018-05-19T07:15:53.364Z,16.00
2018-05-19T07:18:19.931Z,19.80
2018-05-19T07:20:46.502Z,20.60
2018-05-19T07:23:13.454Z,15.07
2018-05-19T07:25:40.428Z,18.73
2018-05-19T07:28:06.969Z,15.25
2018-05-19T07:30:33.571Z,15.50
2018-05-19T07:33:00.130Z,15.88
2018-05-19T07:35:26.712Z,16.95
2018-05-19T07:37:53.340Z,17.60
2018-05-19T07:40:20.260Z,15.93
2018-05-19T07:42:46.840Z,16.30
2018-05-19T07:45:13.784Z,17.92
2018-05-19T07:47:40.332Z,15.70
2018-05-19T07:50:06.917Z,22.95
2018-05-19T07:52:33.489Z,18.92
2018-05-19T07:55:00.057Z,16.75
2018-05-19T07:57:26.629Z,20.12
2018-05-19T07:59:53.173Z,16.48
2018-05-19T08:02:19.769Z,16.00
2018-05-19T08:04:46.320Z,16.98
2018-05-19T08:07:12.900Z,17.85
2018-05-19T08:09:39.472Z,17.90
2018-05-19T08:12:06.380Z,17.87
2018-05-19T08:14:32.968Z,19.95
2018-05-19T08:16:59.525Z,18.20
2018-05-19T08:19:26.480Z,16.75
2018-05-19T08:21:53.420Z,19.07
2018-05-19T08:24:19.972Z,16.58
2018-05-19T08:26:46.564Z,18.10
2018-05-19T08:29:13.099Z,16.65
2018-05-19T08:31:40.045Z,16.17
2018-05-19T08:34:07.022Z,18.52
2018-05-19T08:36:33.680Z,18.12
2018-05-19T08:39:00.329Z,15.43
2018-05-19T08:41:26.943Z,21.15
2018-05-19T08:43:53.908Z,16.62
2018-05-19T08:46:20.867Z,18.37
2018-05-19T08:48:47.801Z,18.15
2018-05-19T08:51:14.400Z,17.30
2018-05-19T08:53:40.948Z,16.50
2018-05-19T08:56:07.534Z,17.27
2018-05-19T08:58:34.116Z,16.30
2018-05-19T09:01:01.037Z,15.98
2018-05-19T09:03:27.624Z,18.27
2018-05-19T09:05:54.564Z,16.98
2018-05-19T09:08:21.516Z,16.52
2018-05-19T09:10:48.252Z,21.15
2018-05-19T09:13:14.801Z,15.05
2018-05-19T09:15:41.402Z,18.45
2018-05-19T09:18:07.957Z,16.87
2018-05-19T09:20:34.551Z,31.60
2018-05-19T09:23:01.522Z,18.40
2018-05-19T09:25:28.436Z,18.80
2018-05-19T09:27:55.023Z,19.17
2018-05-19T09:30:21.949Z,14.57
2018-05-19T09:32:48.539Z,22.62
2018-05-19T09:35:15.143Z,16.67
2018-05-19T09:37:41.690Z,15.73
2018-05-19T09:40:08.266Z,15.90
2018-05-19T09:42:35.279Z,14.48
2018-05-19T09:45:01.981Z,17.37
2018-05-19T09:47:29.125Z,18.80
2018-05-19T09:49:55.614Z,17.10
2018-05-19T09:52:22.195Z,17.08
2018-05-19T09:54:48.761Z,17.02
2018-05-19T09:57:15.368Z,15.95
2018-05-19T09:59:41.946Z,16.87
2018-05-19T10:02:15.444Z,17.23
2018-05-19T10:04:42.020Z,17.40
2018-05-19T10:07:08.604Z,16.50
2018-05-19T10:09:35.185Z,16.77
2018-05-19T10:12:01.757Z,17.58
2018-05-19T10:14:28.370Z,17.40
2018-05-19T10:16:54.955Z,16.67
2018-05-19T10:19:21.506Z,15.98
2018-05-19T10:21:48.272Z,15.13
2018-05-19T10:24:15.545Z,17.13
2018-05-19T10:26:42.597Z,15.98
2018-05-19T10:29:09.552Z,16.70
2018-05-19T10:31:36.092Z,18.23
2018-05-19T10:34:03.093Z,13.35
2018-05-19T10:36:29.742Z,14.80
2018-05-19T10:38:56.436Z,14.93
2018-05-19T10:41:23.032Z,12.90
2018-05-19T10:43:49.585Z,11.90
2018-05-19T10:46:16.296Z,12.05
2018-05-19T10:48:42.901Z,10.95
2018-05-19T10:51:09.472Z,10.32
2018-05-19T10:53:36.054Z,10.68
2018-05-19T10:56:02.994Z,11.98
2018-05-19T10:58:29.958Z,13.50
2018-05-19T11:00:56.880Z,10.70
2018-05-19T11:03:23.481Z,11.27
2018-05-19T11:05:50.069Z,11.03
2018-05-19T11:08:16.719Z,11.25
2018-05-19T11:10:43.309Z,11.43
2018-05-19T11:13:10.357Z,10.52
2018-05-19T11:15:36.915Z,16.70
2018-05-19T11:18:04.150Z,10.70
2018-05-19T11:20:31.007Z,12.65
2018-05-19T11:22:58.080Z,12.57
2018-05-19T11:25:24.945Z,12.73
2018-05-19T11:27:52.165Z,10.30
2018-05-19T11:30:19.375Z,12.40
2018-05-19T11:32:46.160Z,14.35
2018-05-19T11:35:12.978Z,11.43
2018-05-19T11:37:40.192Z,10.35
2018-05-19T11:40:07.537Z,12.85
2018-05-19T11:42:34.311Z,14.25
2018-05-19T11:45:01.240Z,10.00
2018-05-19T11:47:27.845Z,13.40
2018-05-19T11:49:54.460Z,9.80
2018-05-19T11:52:21.015Z,10.93
2018-05-19T11:54:47.606Z,10.63
2018-05-19T11:57:14.572Z,10.40
2018-05-19T11:59:41.484Z,9.68
2018-05-19T12:02:08.057Z,9.98
2018-05-19T12:04:34.597Z,24.73
2018-05-19T12:07:01.180Z,10.30
2018-05-19T12:09:27.759Z,10.10
2018-05-19T12:11:54.318Z,10.38
2018-05-19T12:14:20.909Z,12.68
2018-05-19T12:16:47.834Z,9.40
2018-05-19T12:19:14.422Z,9.68
2018-05-19T12:21:41.377Z,10.23
2018-05-19T12:24:08.311Z,9.20
2018-05-19T12:26:34.921Z,11.80
2018-05-19T12:29:01.488Z,9.40
2018-05-19T12:31:28.080Z,9.98
2018-05-19T12:33:55.039Z,8.75
2018-05-19T12:36:21.957Z,9.75
2018-05-19T12:38:48.545Z,9.10
2018-05-19T12:41:15.085Z,9.13
2018-05-19T12:43:42.349Z,8.40
2018-05-19T12:46:09.212Z,19.10
2018-05-19T12:48:35.816Z,11.65
2018-05-19T12:51:02.453Z,15.13
2018-05-19T12:53:29.020Z,14.05
2018-05-19T12:55:55.613Z,9.68
2018-05-19T12:58:22.209Z,9.18
2018-05-19T13:00:48.865Z,9.10
2018-05-19T13:03:15.463Z,11.10
2018-05-19T13:05:42.017Z,8.80
2018-05-19T13:08:08.605Z,9.27
2018-05-19T13:10:35.245Z,11.30
2018-05-19T13:13:01.888Z,8.65
2018-05-19T13:15:28.481Z,8.35
2018-05-19T13:17:55.397Z,8.00
2018-05-19T13:20:21.980Z,11.60
2018-05-19T13:22:48.954Z,11.73
2018-05-19T13:25:15.504Z,10.57
2018-05-19T13:27:42.087Z,8.43
2018-05-19T13:30:08.636Z,7.22
2018-05-19T13:32:35.222Z,8.18
2018-05-19T13:35:02.189Z,8.13
2018-05-19T13:37:28.761Z,8.40
2018-05-19T13:39:55.333Z,8.13
2018-05-19T13:42:21.884Z,8.10
2018-05-19T13:44:48.490Z,7.77
2018-05-19T13:47:15.076Z,8.15
2018-05-19T13:49:41.663Z,8.32
2018-05-19T13:52:08.651Z,7.40
2018-05-19T13:54:35.243Z,12.32
2018-05-19T13:57:01.873Z,10.20
2018-05-19T13:59:28.464Z,7.97
2018-05-19T14:01:55.009Z,7.50
2018-05-19T14:04:21.966Z,7.37
2018-05-19T14:06:48.519Z,6.97
2018-05-19T14:09:15.484Z,7.53
2018-05-19T14:11:42.420Z,8.33
2018-05-19T14:14:08.967Z,7.80
2018-05-19T14:16:35.677Z,9.73
2018-05-19T14:19:02.239Z,15.00
2018-05-19T14:21:28.831Z,13.62
2018-05-19T14:24:03.700Z,11.10
2018-05-19T14:26:30.320Z,11.25
2018-05-19T14:28:57.290Z,13.67
2018-05-19T14:31:23.854Z,9.90
2018-05-19T14:33:50.469Z,9.60
2018-05-19T14:36:17.404Z,10.35
2018-05-19T14:38:43.992Z,7.70
2018-05-19T14:41:10.593Z,8.25
2018-05-19T14:43:37.152Z,8.50
2018-05-19T14:46:03.786Z,8.80
2018-05-19T14:48:30.408Z,9.40
2018-05-19T14:50:56.976Z,9.30
2018-05-19T14:53:23.598Z,6.90
2018-05-19T14:55:50.191Z,8.38
2018-05-19T14:58:16.752Z,8.57
2018-05-19T15:00:43.402Z,9.93
2018-05-19T15:03:09.962Z,10.57
2018-05-19T15:05:36.955Z,9.05
2018-05-19T15:08:03.588Z,9.25
2018-05-19T15:10:30.179Z,8.18
2018-05-19T15:12:58.133Z,8.27
2018-05-19T15:15:24.676Z,11.70
2018-05-19T15:17:51.256Z,8.60
2018-05-19T15:20:17.841Z,8.13
2018-05-19T15:22:44.758Z,9.13
2018-05-19T15:25:11.348Z,9.90
2018-05-19T15:27:38.279Z,8.07
2018-05-19T15:30:05.000Z,11.18
2018-05-19T15:32:31.582Z,9.90
2018-05-19T15:34:58.525Z,9.63
2018-05-19T15:37:25.113Z,19.58
2018-05-19T15:39:51.681Z,8.30
2018-05-19T15:42:18.262Z,8.30
2018-05-19T15:44:44.841Z,9.68
2018-05-19T15:47:11.770Z,7.80
2018-05-19T15:49:38.426Z,7.50
2018-05-19T15:52:05.010Z,8.00
2018-05-19T15:54:31.613Z,8.70
2018-05-19T15:56:58.188Z,7.30
2018-05-19T15:59:25.637Z,6.70
2018-05-19T16:01:52.332Z,11.10
2018-05-19T16:04:18.907Z,9.02
2018-05-19T16:06:45.492Z,7.82
2018-05-19T16:09:12.084Z,9.73
2018-05-19T16:11:38.645Z,7.70
2018-05-19T16:14:05.244Z,9.10
2018-05-19T16:16:32.214Z,9.80
2018-05-19T16:18:59.160Z,7.40
2018-05-19T16:21:25.784Z,9.68
2018-05-19T16:23:52.340Z,8.90
2018-05-19T16:26:18.956Z,7.80
2018-05-19T16:28:46.368Z,9.57
2018-05-19T16:31:13.336Z,8.07
2018-05-19T16:33:40.296Z,6.97
2018-05-19T16:36:07.245Z,7.85
2018-05-19T16:38:34.212Z,10.75
2018-05-19T16:41:01.149Z,7.57
2018-05-19T16:43:28.112Z,5.60
2018-05-19T16:45:55.072Z,10.18
2018-05-19T16:48:21.648Z,7.00
2018-05-19T16:50:48.270Z,4.37
2018-05-19T16:53:15.197Z,4.20
2018-05-19T16:55:41.772Z,11.48
2018-05-19T16:58:08.728Z,10.18
2018-05-19T17:00:35.281Z,5.10
2018-05-19T17:03:02.249Z,6.40
2018-05-19T17:05:28.820Z,5.80
2018-05-19T17:07:55.396Z,5.30
2018-05-19T17:10:21.988Z,4.10
2018-05-19T17:12:48.532Z,6.93
2018-05-19T17:15:15.484Z,5.50
2018-05-19T17:17:42.402Z,6.32
2018-05-19T17:20:08.996Z,7.12
2018-05-19T17:22:35.940Z,6.43
2018-05-19T17:25:02.940Z,10.25
2018-05-19T17:27:29.516Z,9.20
2018-05-19T17:29:56.068Z,10.75
2018-05-19T17:32:22.645Z,13.07
2018-05-19T17:34:49.616Z,10.00
2018-05-19T17:37:16.171Z,7.75
2018-05-19T17:39:42.744Z,10.07
2018-05-19T17:42:09.308Z,6.93
2018-05-19T17:44:35.893Z,9.20
2018-05-19T17:47:02.960Z,8.90
2018-05-19T17:49:29.557Z,10.38
2018-05-19T17:51:57.105Z,11.13
2018-05-19T17:54:23.696Z,10.65
2018-05-19T17:56:50.244Z,10.88
2018-05-19T17:59:16.816Z,11.32
2018-05-19T18:01:43.786Z,9.25
2018-05-19T18:04:10.373Z,9.25
2018-05-19T18:06:36.965Z,11.60
2018-05-19T18:09:04.952Z,11.95
2018-05-19T18:11:31.649Z,10.48
2018-05-19T18:13:58.232Z,10.00
2018-05-19T18:16:24.785Z,11.30
2018-05-19T18:18:51.751Z,9.10
2018-05-19T18:21:18.682Z,9.40
2018-05-19T18:23:45.264Z,10.70
2018-05-19T18:26:12.188Z,9.88
2018-05-19T18:28:39.198Z,9.82
2018-05-19T18:31:06.112Z,7.40
2018-05-19T18:33:33.088Z,9.52
2018-05-19T18:35:59.644Z,10.30
2018-05-19T18:38:26.219Z,9.13
2018-05-19T18:40:52.817Z,9.97
2018-05-19T18:43:19.764Z,9.65
2018-05-19T18:45:46.958Z,10.52
2018-05-19T18:48:13.568Z,8.32
2018-05-19T18:50:40.162Z,8.85
2018-05-19T18:53:06.745Z,11.82
2018-05-19T18:55:33.328Z,11.65
2018-05-19T18:57:59.914Z,12.05
2018-05-19T19:00:27.398Z,11.18
2018-05-19T19:02:53.996Z,11.68
2018-05-19T19:05:21.776Z,11.18
2018-05-19T19:07:48.694Z,11.43
2018-05-19T19:10:15.303Z,11.95
2018-05-19T19:12:41.863Z,12.03
2018-05-19T19:15:08.448Z,11.65
2018-05-19T19:17:35.037Z,12.63
2018-05-19T19:20:01.585Z,13.07
2018-05-19T19:22:28.235Z,12.98
2018-05-19T19:24:54.780Z,13.20
2018-05-19T19:27:21.733Z,14.50
2018-05-19T19:29:48.322Z,14.80
2018-05-19T19:32:14.908Z,14.20
2018-05-19T19:34:41.888Z,15.02
2018-05-19T19:37:08.436Z,15.32
2018-05-19T19:39:35.567Z,14.93
2018-05-19T19:42:02.145Z,16.10
2018-05-19T19:44:28.701Z,16.17
2018-05-19T19:46:55.295Z,18.37
2018-05-19T19:49:21.884Z,17.02
2018-05-19T19:51:52.005Z,20.62
2018-05-19T19:54:18.981Z,17.27
2018-05-19T19:56:45.589Z,19.52
2018-05-19T19:59:12.173Z,17.50
2018-05-19T20:01:38.752Z,16.90
2018-05-19T20:04:05.357Z,18.42
2018-05-19T20:06:32.441Z,16.17
2018-05-19T20:08:59.055Z,15.95
2018-05-19T20:11:26.976Z,15.13
2018-05-19T20:13:53.558Z,17.98
2018-05-19T20:16:21.093Z,16.87
2018-05-19T20:18:47.716Z,17.73
2018-05-19T20:21:14.636Z,18.25
2018-05-19T20:23:42.029Z,18.60
2018-05-19T20:26:08.972Z,16.42
2018-05-19T20:28:35.528Z,18.15
2018-05-19T20:31:02.548Z,19.10
2018-05-19T20:33:29.084Z,17.25
2018-05-19T20:35:55.652Z,19.37
2018-05-19T20:38:22.229Z,19.37
2018-05-19T20:40:49.136Z,18.12
2018-05-19T20:43:15.704Z,18.70
2018-05-19T20:45:42.235Z,19.95
2018-05-19T20:48:08.820Z,19.37
2018-05-19T20:50:35.483Z,18.60
2018-05-19T20:53:02.032Z,18.15
2018-05-19T20:55:28.984Z,19.90
2018-05-19T20:57:55.906Z,17.33
2018-05-19T21:00:22.532Z,20.15
2018-05-19T21:02:49.265Z,21.10
2018-05-19T21:05:15.865Z,21.70
2018-05-19T21:07:42.464Z,19.05
2018-05-19T21:10:09.004Z,17.77
2018-05-19T21:12:35.591Z,20.98
2018-05-19T21:15:02.362Z,18.30
2018-05-19T21:17:28.908Z,18.02
2018-05-19T21:19:55.500Z,19.70
2018-05-19T21:22:22.079Z,22.98
2018-05-19T21:24:48.657Z,20.25
2018-05-19T21:27:15.229Z,20.40
2018-05-19T21:29:42.150Z,20.10
2018-05-19T21:32:08.776Z,19.15
2018-05-19T21:34:35.324Z,25.73
2018-05-19T21:37:01.926Z,18.35
2018-05-19T21:39:28.884Z,20.48
2018-05-19T21:41:55.788Z,19.42
2018-05-19T21:44:22.361Z,20.83
2018-05-19T21:46:48.928Z,22.63
2018-05-19T21:49:15.880Z,25.40
2018-05-19T21:51:42.483Z,24.48
2018-05-19T21:54:09.036Z,22.75
2018-05-19T21:56:35.637Z,22.57
2018-05-19T21:59:02.233Z,23.25
2018-05-19T22:01:28.828Z,25.10
2018-05-19T22:03:55.813Z,24.35
2018-05-19T22:06:22.368Z,23.73
2018-05-19T22:08:49.025Z,24.75
2018-05-19T22:11:15.613Z,25.30
2018-05-19T22:13:43.312Z,25.17
2018-05-19T22:16:10.257Z,22.98
2018-05-19T22:18:36.811Z,21.50
2018-05-19T22:21:03.782Z,21.35
2018-05-19T22:23:30.344Z,21.60
2018-05-19T22:25:56.960Z,21.10
2018-05-19T22:28:23.908Z,19.40
2018-05-19T22:30:57.920Z,21.40
2018-05-19T22:33:24.511Z,19.25
2018-05-19T22:35:51.076Z,19.80
2018-05-19T22:38:17.651Z,18.00
2018-05-19T22:40:44.199Z,20.17
2018-05-19T22:43:10.777Z,20.10
2018-05-19T22:45:37.716Z,17.17
2018-05-19T22:48:04.334Z,19.20
2018-05-19T22:50:30.955Z,20.00
2018-05-19T22:52:57.524Z,20.98
2018-05-19T22:58:07.725Z,19.67
2018-05-19T23:00:34.345Z,17.98
2018-05-19T23:03:00.933Z,18.52
2018-05-19T23:05:34.448Z,18.02
2018-05-19T23:08:01.029Z,16.90
2018-05-19T23:10:27.604Z,17.98
2018-05-19T23:12:54.389Z,17.50
2018-05-19T23:15:20.932Z,19.05
2018-05-19T23:17:47.500Z,17.25
2018-05-19T23:20:14.076Z,18.05
2018-05-19T23:22:42.956Z,17.25
2018-05-19T23:25:09.571Z,16.98
2018-05-19T23:27:36.143Z,18.40
2018-05-19T23:30:02.861Z,18.80
2018-05-19T23:32:29.452Z,19.52
2018-05-19T23:34:56.000Z,16.30
2018-05-19T23:37:22.580Z,19.27
2018-05-19T23:39:49.145Z,18.57
2018-05-19T23:42:15.741Z,15.38
2018-05-19T23:44:42.332Z,17.80
2018-05-19T23:47:08.933Z,17.35
2018-05-19T23:49:35.532Z,17.90
2018-05-19T23:52:02.205Z,16.35
2018-05-19T23:54:28.856Z,16.30
2018-05-19T23:56:55.460Z,15.90
2018-05-19T23:59:22.464Z,17.05
